Marblemount, WA

11:14 AM PST on January 16, 2017 (GMT -0800)
Corkindale, WA USA | | Change Station
Active Advisory: Winter Storm Watch

Elev 292 ft 48.51 °N, 121.48 °W | Updated 4 minutes ago

Mostly Cloudy
Mostly Cloudy
40.5 °F
Feels Like 40 °F
N
0.0
Wind Variable Wind from SW

Today
High -- | Low -- °F
--% Chance of Precip.
Yesterday
High -- | Low -- °F
Precip. -- in
Pressure 30.19 in
Visibility 10.0 miles
Clouds Overcast 9000 ft
Windchill 40 °F
Dew Point 34 °F
Humidity 78%
Rainfall 0.00 in
Snow Depth Not available.
7:51 AM 4:40 PM
Waning Gibbous, 79% visible
METAR KBLI 161853Z 04003KT 10SM OVC090 03/M02 A3016 RMK AO2 SLP223 T00331017
Pressure 30.19 in
Visibility 10.0 miles
Clouds Overcast 9000 ft
Windchill 40 °F
Dew Point 34 °F
Humidity 78%
Rainfall 0.00 in
Snow Depth Not available.
7:51 AM 4:40 PM
Waning Gibbous, 79% visible
METAR KBLI 161853Z 04003KT 10SM OVC090 03/M02 A3016 RMK AO2 SLP223 T00331017

Get Your Daily Forecast Email!

Thanks for signing up!

Be on the lookout for a verification email in your inbox.

You'll start receiving the daily forecast at 8 AM.

×

10-Day Weather Forecast

Almanac

Astronomy

Jan. 16, 2017 Rise Set
Actual Time
Civil Twilight
Nautical Twilight
Astronomical Twilight
Moon
Length of Visible Light
Length of Day
Tomorrow will be .
, % of the Moon is Illuminated

Today's Extremes

State Highs State Lows

Community

WunderPhotos

Upload Photos

1,962,540 photos uploaded!

WunderBlog® & News

Nearby

Air Quality

  Air Quality AQ Index Pollutant
Not available.

Snow Depth

Station Depth Elevation

Earthquake Activity

City Distance Mag. Time & Date
Minimum magnitude displayed is 2.5.

Coastal Water Temperatures

Place Temperature

Stations

Nearby Weather Stations

Station Location Temp. Windchill Dew Point Humidity Wind Precip. Elev Updated Type
                   

Watches & Warnings

Winter Storm Watch
Issued: 5:42 AM PST Jan. 16, 2017 – National Weather Service

... Winter Storm Watch now in effect from late tonight through
Tuesday evening...

* snow accumulations... 10 to 16 inches.

* Some affected locations... Mount Baker ski area.

* Timing... snow will develop tonight and become heavy at times
early Tuesday before changing over to rain late in the day.

* Snow level... snow level near 3000 feet... rising to 6000 feet
on Tuesday evening.

* Main impact... hazardous winter driving conditions.

Precautionary/preparedness actions...

A Winter Storm Watch means there is a potential for significant
snow... sleet... or ice accumulations that may impact travel.
Continue to monitor the latest forecasts.



Www.Weather.Gov/Seattle